sensor_id;sensor_type;location;lat;lon;timestamp;pressure;altitude;pressure_sealevel;temperature
67509;BMP280;54354;44.724;11.284;2022-07-18T00:01:45;102076.88;;;32.06
67509;BMP280;54354;44.724;11.284;2022-07-18T00:04:10;102087.63;;;32.04
67509;BMP280;54354;44.724;11.284;2022-07-18T00:06:36;102076.69;;;32.04
67509;BMP280;54354;44.724;11.284;2022-07-18T00:09:03;102072.81;;;31.99
67509;BMP280;54354;44.724;11.284;2022-07-18T00:11:29;102060.91;;;31.97
67509;BMP280;54354;44.724;11.284;2022-07-18T00:13:55;102064.91;;;31.95
67509;BMP280;54354;44.724;11.284;2022-07-18T00:16:21;102065.97;;;31.92
67509;BMP280;54354;44.724;11.284;2022-07-18T00:18:48;102069.97;;;31.91
67509;BMP280;54354;44.724;11.284;2022-07-18T00:21:14;102069.56;;;31.87
67509;BMP280;54354;44.724;11.284;2022-07-18T00:23:39;102076.84;;;31.85
67509;BMP280;54354;44.724;11.284;2022-07-18T00:26:05;102060.94;;;31.83
67509;BMP280;54354;44.724;11.284;2022-07-18T00:28:30;102068.97;;;31.81
67509;BMP280;54354;44.724;11.284;2022-07-18T00:30:56;102069.50;;;31.80
67509;BMP280;54354;44.724;11.284;2022-07-18T00:33:21;102069.28;;;31.78
67509;BMP280;54354;44.724;11.284;2022-07-18T00:35:48;102057.91;;;31.74
67509;BMP280;54354;44.724;11.284;2022-07-18T00:38:14;102060.47;;;31.72
67509;BMP280;54354;44.724;11.284;2022-07-18T00:40:39;102058.78;;;31.69
67509;BMP280;54354;44.724;11.284;2022-07-18T00:43:05;102066.06;;;31.66
67509;BMP280;54354;44.724;11.284;2022-07-18T00:45:30;102060.91;;;31.63
67509;BMP280;54354;44.724;11.284;2022-07-18T00:47:56;102063.94;;;31.59
67509;BMP280;54354;44.724;11.284;2022-07-18T00:50:23;102058.28;;;31.57
67509;BMP280;54354;44.724;11.284;2022-07-18T00:52:49;102045.63;;;31.54
67509;BMP280;54354;44.724;11.284;2022-07-18T00:55:15;102051.66;;;31.52
67509;BMP280;54354;44.724;11.284;2022-07-18T00:57:42;102060.38;;;31.51
67509;BMP280;54354;44.724;11.284;2022-07-18T01:00:10;102055.03;;;31.45
67509;BMP280;54354;44.724;11.284;2022-07-18T01:02:55;102059.97;;;31.47
67509;BMP280;54354;44.724;11.284;2022-07-18T01:05:21;102063.03;;;31.43
67509;BMP280;54354;44.724;11.284;2022-07-18T01:07:47;102062.28;;;31.43
67509;BMP280;54354;44.724;11.284;2022-07-18T01:10:13;102066.31;;;31.42
67509;BMP280;54354;44.724;11.284;2022-07-18T01:12:38;102067.56;;;31.41
67509;BMP280;54354;44.724;11.284;2022-07-18T01:15:05;102067.38;;;31.39
67509;BMP280;54354;44.724;11.284;2022-07-18T01:17:31;102070.94;;;31.34
67509;BMP280;54354;44.724;11.284;2022-07-18T01:19:56;102066.19;;;31.34
67509;BMP280;54354;44.724;11.284;2022-07-18T01:22:22;102070.94;;;31.34
67509;BMP280;54354;44.724;11.284;2022-07-18T01:24:48;102062.31;;;31.30
67509;BMP280;54354;44.724;11.284;2022-07-18T01:27:19;102059.69;;;31.24
67509;BMP280;54354;44.724;11.284;2022-07-18T01:29:46;102062.41;;;31.24
67509;BMP280;54354;44.724;11.284;2022-07-18T01:32:13;102066.38;;;31.23
67509;BMP280;54354;44.724;11.284;2022-07-18T01:34:39;102068.44;;;31.22
67509;BMP280;54354;44.724;11.284;2022-07-18T01:37:05;102071.69;;;31.21
67509;BMP280;54354;44.724;11.284;2022-07-18T01:39:31;102070.72;;;31.18
67509;BMP280;54354;44.724;11.284;2022-07-18T01:42:07;102068.09;;;31.13
67509;BMP280;54354;44.724;11.284;2022-07-18T01:44:34;102065.34;;;31.13
67509;BMP280;54354;44.724;11.284;2022-07-18T01:47:02;102072.41;;;31.08
67509;BMP280;54354;44.724;11.284;2022-07-18T01:49:28;102077.88;;;31.08
67509;BMP280;54354;44.724;11.284;2022-07-18T01:51:56;102083.66;;;31.05
67509;BMP280;54354;44.724;11.284;2022-07-18T01:54:26;102079.78;;;31.00
67509;BMP280;54354;44.724;11.284;2022-07-18T01:56:52;102082.94;;;31.04
67509;BMP280;54354;44.724;11.284;2022-07-18T01:59:18;102081.47;;;31.03
67509;BMP280;54354;44.724;11.284;2022-07-18T02:01:44;102081.97;;;31.02
67509;BMP280;54354;44.724;11.284;2022-07-18T02:04:10;102085.25;;;31.00
67509;BMP280;54354;44.724;11.284;2022-07-18T02:06:35;102081.75;;;31.00
67509;BMP280;54354;44.724;11.284;2022-07-18T02:09:02;102076.09;;;30.98
67509;BMP280;54354;44.724;11.284;2022-07-18T02:11:27;102080.28;;;30.99
67509;BMP280;54354;44.724;11.284;2022-07-18T02:13:54;102079.34;;;30.96
67509;BMP280;54354;44.724;11.284;2022-07-18T02:16:19;102086.06;;;30.95
67509;BMP280;54354;44.724;11.284;2022-07-18T02:18:45;102090.09;;;30.94
67509;BMP280;54354;44.724;11.284;2022-07-18T02:21:10;102078.19;;;30.91
67509;BMP280;54354;44.724;11.284;2022-07-18T02:23:36;102085.44;;;30.89
67509;BMP280;54354;44.724;11.284;2022-07-18T02:26:02;102077.75;;;30.87
67509;BMP280;54354;44.724;11.284;2022-07-18T02:28:28;102085.75;;;30.85
67509;BMP280;54354;44.724;11.284;2022-07-18T02:30:53;102082.81;;;30.83
67509;BMP280;54354;44.724;11.284;2022-07-18T02:33:19;102081.81;;;30.81
67509;BMP280;54354;44.724;11.284;2022-07-18T02:35:45;102082.38;;;30.79
67509;BMP280;54354;44.724;11.284;2022-07-18T02:38:10;102091.63;;;30.76
67509;BMP280;54354;44.724;11.284;2022-07-18T02:40:36;102092.16;;;30.75
67509;BMP280;54354;44.724;11.284;2022-07-18T02:43:02;102095.94;;;30.72
67509;BMP280;54354;44.724;11.284;2022-07-18T02:45:27;102088.75;;;30.69
67509;BMP280;54354;44.724;11.284;2022-07-18T02:47:53;102090.47;;;30.72
67509;BMP280;54354;44.724;11.284;2022-07-18T02:50:19;102093.50;;;30.68
67509;BMP280;54354;44.724;11.284;2022-07-18T02:52:45;102100.00;;;30.65
67509;BMP280;54354;44.724;11.284;2022-07-18T02:55:12;102104.53;;;30.63
67509;BMP280;54354;44.724;11.284;2022-07-18T02:57:38;102098.50;;;30.64
67509;BMP280;54354;44.724;11.284;2022-07-18T03:00:05;102100.53;;;30.64
67509;BMP280;54354;44.724;11.284;2022-07-18T03:02:31;102109.69;;;30.66
67509;BMP280;54354;44.724;11.284;2022-07-18T03:04:57;102099.78;;;30.63
67509;BMP280;54354;44.724;11.284;2022-07-18T03:07:22;102101.06;;;30.62
67509;BMP280;54354;44.724;11.284;2022-07-18T03:09:48;102097.88;;;30.58
67509;BMP280;54354;44.724;11.284;2022-07-18T03:12:13;102101.13;;;30.56
67509;BMP280;54354;44.724;11.284;2022-07-18T03:14:39;102101.66;;;30.55
67509;BMP280;54354;44.724;11.284;2022-07-18T03:17:04;102098.69;;;30.53
67509;BMP280;54354;44.724;11.284;2022-07-18T03:19:30;102099.22;;;30.51
67509;BMP280;54354;44.724;11.284;2022-07-18T03:21:55;102095.53;;;30.49
67509;BMP280;54354;44.724;11.284;2022-07-18T03:24:21;102100.25;;;30.48
67509;BMP280;54354;44.724;11.284;2022-07-18T03:26:46;102101.72;;;30.49
67509;BMP280;54354;44.724;11.284;2022-07-18T03:29:12;102104.47;;;30.49
67509;BMP280;54354;44.724;11.284;2022-07-18T03:31:38;102107.19;;;30.49
67509;BMP280;54354;44.724;11.284;2022-07-18T03:34:04;102101.72;;;30.49
67509;BMP280;54354;44.724;11.284;2022-07-18T03:36:30;102097.53;;;30.48
67509;BMP280;54354;44.724;11.284;2022-07-18T03:38:55;102103.72;;;30.49
67509;BMP280;54354;44.724;11.284;2022-07-18T03:41:21;102097.00;;;30.50
67509;BMP280;54354;44.724;11.284;2022-07-18T03:43:46;102099.97;;;30.52
67509;BMP280;54354;44.724;11.284;2022-07-18T03:46:12;102099.22;;;30.51
67509;BMP280;54354;44.724;11.284;2022-07-18T03:48:37;102103.47;;;30.52
67509;BMP280;54354;44.724;11.284;2022-07-18T03:51:03;102095.25;;;30.52
67509;BMP280;54354;44.724;11.284;2022-07-18T03:53:30;102101.22;;;30.51
67509;BMP280;54354;44.724;11.284;2022-07-18T03:55:56;102108.16;;;30.52
67509;BMP280;54354;44.724;11.284;2022-07-18T03:58:21;102100.47;;;30.50
67509;BMP280;54354;44.724;11.284;2022-07-18T04:00:47;102105.22;;;30.50
67509;BMP280;54354;44.724;11.284;2022-07-18T04:03:13;102109.19;;;30.49
67509;BMP280;54354;44.724;11.284;2022-07-18T04:05:39;102107.94;;;30.50
67509;BMP280;54354;44.724;11.284;2022-07-18T04:08:04;102113.41;;;30.50
67509;BMP280;54354;44.724;11.284;2022-07-18T04:10:30;102115.63;;;30.51
67509;BMP280;54354;44.724;11.284;2022-07-18T04:12:56;102113.41;;;30.50
67509;BMP280;54354;44.724;11.284;2022-07-18T04:15:23;102119.41;;;30.48
67509;BMP280;54354;44.724;11.284;2022-07-18T04:17:49;102118.88;;;30.50
67509;BMP280;54354;44.724;11.284;2022-07-18T04:20:16;102113.94;;;30.48
67509;BMP280;54354;44.724;11.284;2022-07-18T04:22:56;102117.91;;;30.47
67509;BMP280;54354;44.724;11.284;2022-07-18T04:25:25;102123.38;;;30.47
67509;BMP280;54354;44.724;11.284;2022-07-18T04:27:52;102124.03;;;30.53
67509;BMP280;54354;44.724;11.284;2022-07-18T04:30:20;102115.94;;;30.48
67509;BMP280;54354;44.724;11.284;2022-07-18T04:32:46;102119.88;;;30.52
67509;BMP280;54354;44.724;11.284;2022-07-18T04:35:12;102123.31;;;30.53
67509;BMP280;54354;44.724;11.284;2022-07-18T04:37:40;102113.41;;;30.50
67509;BMP280;54354;44.724;11.284;2022-07-18T04:40:07;102110.16;;;30.51
67509;BMP280;54354;44.724;11.284;2022-07-18T04:42:33;102113.63;;;30.52
67509;BMP280;54354;44.724;11.284;2022-07-18T04:44:59;102119.31;;;30.54
67509;BMP280;54354;44.724;11.284;2022-07-18T04:47:26;102113.09;;;30.53
67509;BMP280;54354;44.724;11.284;2022-07-18T04:49:52;102115.84;;;30.53
67509;BMP280;54354;44.724;11.284;2022-07-18T04:52:18;102116.06;;;30.55
67509;BMP280;54354;44.724;11.284;2022-07-18T04:54:43;102123.75;;;30.57
67509;BMP280;54354;44.724;11.284;2022-07-18T04:57:09;102121.97;;;30.59
67509;BMP280;54354;44.724;11.284;2022-07-18T04:59:37;102120.63;;;30.66
67509;BMP280;54354;44.724;11.284;2022-07-18T05:02:02;102122.88;;;30.81
67509;BMP280;54354;44.724;11.284;2022-07-18T05:04:28;102122.69;;;30.92
67509;BMP280;54354;44.724;11.284;2022-07-18T05:06:54;102119.88;;;30.98
67509;BMP280;54354;44.724;11.284;2022-07-18T05:09:20;102111.13;;;30.99
67509;BMP280;54354;44.724;11.284;2022-07-18T05:11:45;102120.41;;;31.09
67509;BMP280;54354;44.724;11.284;2022-07-18T05:14:11;102121.78;;;31.16
67509;BMP280;54354;44.724;11.284;2022-07-18T05:16:36;102122.44;;;31.22
67509;BMP280;54354;44.724;11.284;2022-07-18T05:19:02;102124.50;;;31.29
67509;BMP280;54354;44.724;11.284;2022-07-18T05:21:27;102112.22;;;31.36
67509;BMP280;54354;44.724;11.284;2022-07-18T05:23:53;102118.75;;;31.46
67509;BMP280;54354;44.724;11.284;2022-07-18T05:26:18;102115.91;;;31.51
67509;BMP280;54354;44.724;11.284;2022-07-18T05:28:44;102122.50;;;31.56
67509;BMP280;54354;44.724;11.284;2022-07-18T05:31:10;102120.22;;;31.60
67509;BMP280;54354;44.724;11.284;2022-07-18T05:33:36;102120.84;;;31.66
67509;BMP280;54354;44.724;11.284;2022-07-18T05:36:02;102116.59;;;31.65
67509;BMP280;54354;44.724;11.284;2022-07-18T05:38:28;102124.31;;;31.67
67509;BMP280;54354;44.724;11.284;2022-07-18T05:40:53;102127.78;;;31.67
67509;BMP280;54354;44.724;11.284;2022-07-18T05:43:18;102135.97;;;31.67
67509;BMP280;54354;44.724;11.284;2022-07-18T05:45:44;102127.56;;;31.65
67509;BMP280;54354;44.724;11.284;2022-07-18T05:48:09;102132.31;;;31.65
67509;BMP280;54354;44.724;11.284;2022-07-18T05:50:35;102137.78;;;31.65
67509;BMP280;54354;44.724;11.284;2022-07-18T05:53:00;102146.22;;;31.67
67509;BMP280;54354;44.724;11.284;2022-07-18T05:55:26;102152.09;;;31.71
67509;BMP280;54354;44.724;11.284;2022-07-18T05:57:51;102147.78;;;31.75
67509;BMP280;54354;44.724;11.284;2022-07-18T06:00:18;102137.78;;;31.78
67509;BMP280;54354;44.724;11.284;2022-07-18T06:02:48;102137.56;;;31.76
67509;BMP280;54354;44.724;11.284;2022-07-18T06:05:14;102151.69;;;31.80
67509;BMP280;54354;44.724;11.284;2022-07-18T06:07:40;102146.97;;;31.80
67509;BMP280;54354;44.724;11.284;2022-07-18T06:10:06;102145.16;;;31.83
67509;BMP280;54354;44.724;11.284;2022-07-18T06:12:31;102144.81;;;31.86
67509;BMP280;54354;44.724;11.284;2022-07-18T06:14:58;102141.81;;;31.98
67509;BMP280;54354;44.724;11.284;2022-07-18T06:17:23;102143.28;;;32.12
67509;BMP280;54354;44.724;11.284;2022-07-18T06:19:49;102141.25;;;32.25
67509;BMP280;54354;44.724;11.284;2022-07-18T06:22:15;102147.06;;;32.43
67509;BMP280;54354;44.724;11.284;2022-07-18T06:24:40;102141.00;;;32.57
67509;BMP280;54354;44.724;11.284;2022-07-18T06:27:06;102139.31;;;32.75
67509;BMP280;54354;44.724;11.284;2022-07-18T06:29:31;102139.63;;;32.92
67509;BMP280;54354;44.724;11.284;2022-07-18T06:31:57;102142.66;;;33.10
67509;BMP280;54354;44.724;11.284;2022-07-18T06:34:22;102143.31;;;33.23
67509;BMP280;54354;44.724;11.284;2022-07-18T06:36:48;102151.25;;;33.35
67509;BMP280;54354;44.724;11.284;2022-07-18T06:39:13;102147.59;;;33.40
67509;BMP280;54354;44.724;11.284;2022-07-18T06:41:41;102147.59;;;33.40
67509;BMP280;54354;44.724;11.284;2022-07-18T06:44:12;102137.50;;;33.35
67509;BMP280;54354;44.724;11.284;2022-07-18T06:46:38;102147.41;;;33.38
67509;BMP280;54354;44.724;11.284;2022-07-18T06:49:04;102142.50;;;33.44
67509;BMP280;54354;44.724;11.284;2022-07-18T06:51:30;102153.66;;;33.46
67509;BMP280;54354;44.724;11.284;2022-07-18T06:53:56;102154.38;;;33.46
67509;BMP280;54354;44.724;11.284;2022-07-18T06:56:22;102156.25;;;33.51
67509;BMP280;54354;44.724;11.284;2022-07-18T06:58:48;102156.44;;;33.61
67509;BMP280;54354;44.724;11.284;2022-07-18T07:01:17;102151.00;;;33.68
67509;BMP280;54354;44.724;11.284;2022-07-18T07:03:43;102161.28;;;33.76
67509;BMP280;54354;44.724;11.284;2022-07-18T07:06:09;102158.00;;;33.85
67509;BMP280;54354;44.724;11.284;2022-07-18T07:08:34;102155.88;;;33.98
67509;BMP280;54354;44.724;11.284;2022-07-18T07:11:01;102156.78;;;34.09
67509;BMP280;54354;44.724;11.284;2022-07-18T07:13:26;102157.16;;;34.20
67509;BMP280;54354;44.724;11.284;2022-07-18T07:15:52;102153.34;;;34.31
67509;BMP280;54354;44.724;11.284;2022-07-18T07:18:18;102155.53;;;34.40
67509;BMP280;54354;44.724;11.284;2022-07-18T07:20:43;102155.19;;;34.44
67509;BMP280;54354;44.724;11.284;2022-07-18T07:23:09;102155.94;;;34.52
67509;BMP280;54354;44.724;11.284;2022-07-18T07:25:36;102148.94;;;34.58
67509;BMP280;54354;44.724;11.284;2022-07-18T07:28:02;102147.66;;;34.67
67509;BMP280;54354;44.724;11.284;2022-07-18T07:30:28;102148.19;;;34.73
67509;BMP280;54354;44.724;11.284;2022-07-18T07:32:53;102151.50;;;34.79
67509;BMP280;54354;44.724;11.284;2022-07-18T07:35:20;102151.50;;;34.87
67509;BMP280;54354;44.724;11.284;2022-07-18T07:37:48;102150.00;;;34.93
67509;BMP280;54354;44.724;11.284;2022-07-18T07:40:14;102146.16;;;35.04
67509;BMP280;54354;44.724;11.284;2022-07-18T07:42:40;102148.50;;;35.07
67509;BMP280;54354;44.724;11.284;2022-07-18T07:45:06;102149.06;;;35.14
67509;BMP280;54354;44.724;11.284;2022-07-18T07:47:32;102155.81;;;35.20
67509;BMP280;54354;44.724;11.284;2022-07-18T07:49:58;102160.22;;;35.23
67509;BMP280;54354;44.724;11.284;2022-07-18T07:52:23;102151.22;;;35.23
67509;BMP280;54354;44.724;11.284;2022-07-18T07:54:50;102143.72;;;35.16
67509;BMP280;54354;44.724;11.284;2022-07-18T07:57:16;102156.00;;;35.15
67509;BMP280;54354;44.724;11.284;2022-07-18T07:59:41;102153.97;;;35.15
67509;BMP280;54354;44.724;11.284;2022-07-18T08:02:07;102158.38;;;35.18
67509;BMP280;54354;44.724;11.284;2022-07-18T08:04:32;102153.63;;;35.19
67509;BMP280;54354;44.724;11.284;2022-07-18T08:06:58;102153.78;;;35.21
67509;BMP280;54354;44.724;11.284;2022-07-18T08:09:23;102159.47;;;35.23
67509;BMP280;54354;44.724;11.284;2022-07-18T08:11:49;102158.69;;;35.30
67509;BMP280;54354;44.724;11.284;2022-07-18T08:14:15;102157.59;;;35.33
67509;BMP280;54354;44.724;11.284;2022-07-18T08:16:40;102165.53;;;35.29
67509;BMP280;54354;44.724;11.284;2022-07-18T08:19:06;102162.41;;;35.25
67509;BMP280;54354;44.724;11.284;2022-07-18T08:21:31;102162.78;;;35.29
67509;BMP280;54354;44.724;11.284;2022-07-18T08:23:57;102154.84;;;35.33
67509;BMP280;54354;44.724;11.284;2022-07-18T08:26:22;102158.69;;;35.30
67509;BMP280;54354;44.724;11.284;2022-07-18T08:28:48;102154.50;;;35.29
67509;BMP280;54354;44.724;11.284;2022-07-18T08:31:13;102155.41;;;35.31
67509;BMP280;54354;44.724;11.284;2022-07-18T08:33:39;102151.94;;;35.31
67509;BMP280;54354;44.724;11.284;2022-07-18T08:36:04;102144.78;;;35.28
67509;BMP280;54354;44.724;11.284;2022-07-18T08:38:30;102151.03;;;35.21
67509;BMP280;54354;44.724;11.284;2022-07-18T08:40:56;102144.28;;;35.14
67509;BMP280;54354;44.724;11.284;2022-07-18T08:43:24;102137.69;;;35.10
67509;BMP280;54354;44.724;11.284;2022-07-18T08:45:51;102137.13;;;35.11
67509;BMP280;54354;44.724;11.284;2022-07-18T08:48:18;102132.34;;;35.12
67509;BMP280;54354;44.724;11.284;2022-07-18T08:50:45;102139.13;;;35.11
67509;BMP280;54354;44.724;11.284;2022-07-18T08:53:12;102140.59;;;35.12
67509;BMP280;54354;44.724;11.284;2022-07-18T08:55:38;102146.28;;;35.14
67509;BMP280;54354;44.724;11.284;2022-07-18T08:58:03;102143.53;;;35.14
67509;BMP280;54354;44.724;11.284;2022-07-18T09:00:29;102142.97;;;35.15
67509;BMP280;54354;44.724;11.284;2022-07-18T09:03:02;102133.44;;;35.08
67509;BMP280;54354;44.724;11.284;2022-07-18T09:05:29;102146.47;;;35.08
67509;BMP280;54354;44.724;11.284;2022-07-18T09:08:12;102136.38;;;35.03
67509;BMP280;54354;44.724;11.284;2022-07-18T09:10:58;102143.22;;;35.02
67509;BMP280;54354;44.724;11.284;2022-07-18T09:13:29;102142.28;;;34.99
67509;BMP280;54354;44.724;11.284;2022-07-18T09:16:06;102145.22;;;34.94
67509;BMP280;54354;44.724;11.284;2022-07-18T09:18:34;102146.34;;;34.91
67509;BMP280;54354;44.724;11.284;2022-07-18T09:21:05;102138.09;;;34.83
67509;BMP280;54354;44.724;11.284;2022-07-18T09:23:33;102145.28;;;34.86
67509;BMP280;54354;44.724;11.284;2022-07-18T09:25:58;102151.66;;;34.89
67509;BMP280;54354;44.724;11.284;2022-07-18T09:28:29;102147.06;;;34.91
67509;BMP280;54354;44.724;11.284;2022-07-18T09:30:55;102145.41;;;34.88
67509;BMP280;54354;44.724;11.284;2022-07-18T09:33:20;102149.28;;;34.85
67509;BMP280;54354;44.724;11.284;2022-07-18T09:35:49;102148.75;;;34.79
67509;BMP280;54354;44.724;11.284;2022-07-18T09:38:17;102139.94;;;34.73
67509;BMP280;54354;44.724;11.284;2022-07-18T09:40:45;102140.34;;;34.69
67509;BMP280;54354;44.724;11.284;2022-07-18T09:43:12;102139.78;;;34.63
67509;BMP280;54354;44.724;11.284;2022-07-18T09:45:42;102147.84;;;34.61
67509;BMP280;54354;44.724;11.284;2022-07-18T09:48:10;102148.22;;;34.58
67509;BMP280;54354;44.724;11.284;2022-07-18T09:50:37;102148.78;;;34.56
67509;BMP280;54354;44.724;11.284;2022-07-18T09:53:09;102135.22;;;34.51
67509;BMP280;54354;44.724;11.284;2022-07-18T09:55:35;102133.38;;;34.46
67509;BMP280;54354;44.724;11.284;2022-07-18T09:58:05;102134.66;;;34.37
67509;BMP280;54354;44.724;11.284;2022-07-18T10:00:34;102133.00;;;34.26
67509;BMP280;54354;44.724;11.284;2022-07-18T10:03:01;102129.16;;;34.29
67509;BMP280;54354;44.724;11.284;2022-07-18T10:05:34;102125.28;;;34.25
67509;BMP280;54354;44.724;11.284;2022-07-18T10:08:01;102125.50;;;34.27
67509;BMP280;54354;44.724;11.284;2022-07-18T10:10:29;102132.81;;;34.24
67509;BMP280;54354;44.724;11.284;2022-07-18T10:12:57;102120.91;;;34.22
67509;BMP280;54354;44.724;11.284;2022-07-18T10:15:27;102119.78;;;34.25
67509;BMP280;54354;44.724;11.284;2022-07-18T10:17:53;102122.53;;;34.32
67509;BMP280;54354;44.724;11.284;2022-07-18T10:20:35;102124.38;;;34.30
67509;BMP280;54354;44.724;11.284;2022-07-18T10:23:07;102122.38;;;34.30
67509;BMP280;54354;44.724;11.284;2022-07-18T10:25:34;102113.94;;;34.28
67509;BMP280;54354;44.724;11.284;2022-07-18T10:28:11;102120.72;;;34.27
67509;BMP280;54354;44.724;11.284;2022-07-18T10:30:46;102112.66;;;34.29
67509;BMP280;54354;44.724;11.284;2022-07-18T10:33:42;102106.41;;;34.36
67509;BMP280;54354;44.724;11.284;2022-07-18T10:36:18;102112.66;;;34.29
67509;BMP280;54354;44.724;11.284;2022-07-18T10:41:28;102103.47;;;34.34
67509;BMP280;54354;44.724;11.284;2022-07-18T10:43:54;102099.44;;;34.35
67509;BMP280;54354;44.724;11.284;2022-07-18T10:46:19;102111.53;;;34.32
67509;BMP280;54354;44.724;11.284;2022-07-18T10:48:52;102095.56;;;34.23
67509;BMP280;54354;44.724;11.284;2022-07-18T10:51:19;102099.97;;;34.26
67509;BMP280;54354;44.724;11.284;2022-07-18T10:56:20;102104.19;;;34.27
67509;BMP280;54354;44.724;11.284;2022-07-18T10:58:45;102093.19;;;34.27
67509;BMP280;54354;44.724;11.284;2022-07-18T11:01:16;102096.84;;;34.22
67509;BMP280;54354;44.724;11.284;2022-07-18T11:03:42;102092.28;;;34.25
67509;BMP280;54354;44.724;11.284;2022-07-18T11:06:07;102088.59;;;34.22
67509;BMP280;54354;44.724;11.284;2022-07-18T11:08:33;102084.41;;;34.21
67509;BMP280;54354;44.724;11.284;2022-07-18T11:13:30;102077.97;;;34.11
67509;BMP280;54354;44.724;11.284;2022-07-18T11:24:06;102073.00;;;34.17
67509;BMP280;54354;44.724;11.284;2022-07-18T11:26:33;102070.47;;;34.19
67509;BMP280;54354;44.724;11.284;2022-07-18T11:29:01;102079.63;;;34.14
67509;BMP280;54354;44.724;11.284;2022-07-18T11:31:28;102073.94;;;34.12
67509;BMP280;54354;44.724;11.284;2022-07-18T11:33:54;102078.53;;;34.10
67509;BMP280;54354;44.724;11.284;2022-07-18T11:36:22;102066.59;;;34.07
67509;BMP280;54354;44.724;11.284;2022-07-18T11:38:54;102079.44;;;34.12
67509;BMP280;54354;44.724;11.284;2022-07-18T11:41:21;102058.91;;;34.13
67509;BMP280;54354;44.724;11.284;2022-07-18T11:43:48;102051.00;;;34.17
67509;BMP280;54354;44.724;11.284;2022-07-18T11:46:16;102059.81;;;34.23
67509;BMP280;54354;44.724;11.284;2022-07-18T11:48:44;102047.19;;;34.28
67509;BMP280;54354;44.724;11.284;2022-07-18T11:51:10;102057.44;;;34.35
67509;BMP280;54354;44.724;11.284;2022-07-18T11:53:48;102045.91;;;34.36
67509;BMP280;54354;44.724;11.284;2022-07-18T11:56:15;102043.88;;;34.45
67509;BMP280;54354;44.724;11.284;2022-07-18T11:58:42;102047.34;;;34.45
67509;BMP280;54354;44.724;11.284;2022-07-18T12:01:08;102042.22;;;34.49
67509;BMP280;54354;44.724;11.284;2022-07-18T12:03:36;102033.78;;;34.47
67509;BMP280;54354;44.724;11.284;2022-07-18T12:06:12;102042.94;;;34.50
67509;BMP280;54354;44.724;11.284;2022-07-18T12:08:43;102033.97;;;34.49
67509;BMP280;54354;44.724;11.284;2022-07-18T12:16:05;102036.84;;;34.59
67509;BMP280;54354;44.724;11.284;2022-07-18T12:18:31;102035.22;;;34.63
67509;BMP280;54354;44.724;11.284;2022-07-18T12:21:09;102019.44;;;34.64
67509;BMP280;54354;44.724;11.284;2022-07-18T12:23:35;102028.78;;;34.68
67509;BMP280;54354;44.724;11.284;2022-07-18T12:26:00;102026.38;;;34.65
67509;BMP280;54354;44.724;11.284;2022-07-18T12:28:27;102019.44;;;34.64
67509;BMP280;54354;44.724;11.284;2022-07-18T12:30:54;102014.66;;;34.64
67509;BMP280;54354;44.724;11.284;2022-07-18T12:33:19;102016.84;;;34.66
67509;BMP280;54354;44.724;11.284;2022-07-18T12:35:45;102019.03;;;34.67
67509;BMP280;54354;44.724;11.284;2022-07-18T12:38:12;102014.44;;;34.70
67509;BMP280;54354;44.724;11.284;2022-07-18T12:45:57;101998.13;;;34.72
67509;BMP280;54354;44.724;11.284;2022-07-18T12:48:23;102001.06;;;34.74
67509;BMP280;54354;44.724;11.284;2022-07-18T12:51:08;101997.00;;;34.75
67509;BMP280;54354;44.724;11.284;2022-07-18T12:53:40;101986.22;;;34.69
67509;BMP280;54354;44.724;11.284;2022-07-18T12:56:07;101997.56;;;34.73
67509;BMP280;54354;44.724;11.284;2022-07-18T12:58:33;101990.78;;;34.75
67509;BMP280;54354;44.724;11.284;2022-07-18T13:00:58;101986.72;;;34.76
67509;BMP280;54354;44.724;11.284;2022-07-18T13:03:24;101984.88;;;34.78
67509;BMP280;54354;44.724;11.284;2022-07-18T13:05:49;101976.81;;;34.80
67509;BMP280;54354;44.724;11.284;2022-07-18T13:08:15;101979.56;;;34.80
67509;BMP280;54354;44.724;11.284;2022-07-18T13:10:41;101970.00;;;34.81
67509;BMP280;54354;44.724;11.284;2022-07-18T13:13:08;101977.19;;;34.77
67509;BMP280;54354;44.724;11.284;2022-07-18T13:15:35;101980.69;;;34.77
67509;BMP280;54354;44.724;11.284;2022-07-18T13:18:01;101970.38;;;34.78
67509;BMP280;54354;44.724;11.284;2022-07-18T13:20:27;101960.66;;;34.77
67509;BMP280;54354;44.724;11.284;2022-07-18T13:22:52;101968.38;;;34.78
67509;BMP280;54354;44.724;11.284;2022-07-18T13:25:19;101973.69;;;34.76
67509;BMP280;54354;44.724;11.284;2022-07-18T13:27:44;101963.28;;;34.75
67509;BMP280;54354;44.724;11.284;2022-07-18T13:30:12;101965.44;;;34.76
67509;BMP280;54354;44.724;11.284;2022-07-18T13:32:37;101962.69;;;34.76
67509;BMP280;54354;44.724;11.284;2022-07-18T13:35:04;101952.25;;;34.75
67509;BMP280;54354;44.724;11.284;2022-07-18T13:37:30;101951.69;;;34.76
67509;BMP280;54354;44.724;11.284;2022-07-18T13:39:55;101955.72;;;34.75
67509;BMP280;54354;44.724;11.284;2022-07-18T13:42:21;101944.72;;;34.75
67509;BMP280;54354;44.724;11.284;2022-07-18T13:44:47;101951.69;;;34.76
67509;BMP280;54354;44.724;11.284;2022-07-18T13:47:13;101940.66;;;34.76
67509;BMP280;54354;44.724;11.284;2022-07-18T13:49:39;101941.63;;;34.71
67509;BMP280;54354;44.724;11.284;2022-07-18T13:52:04;101946.56;;;34.72
67509;BMP280;54354;44.724;11.284;2022-07-18T13:54:30;101941.63;;;34.71
67509;BMP280;54354;44.724;11.284;2022-07-18T13:56:56;101936.84;;;34.71
67509;BMP280;54354;44.724;11.284;2022-07-18T13:59:21;101942.34;;;34.71
67509;BMP280;54354;44.724;11.284;2022-07-18T14:01:47;101924.94;;;34.69
67509;BMP280;54354;44.724;11.284;2022-07-18T14:04:12;101927.09;;;34.70
67509;BMP280;54354;44.724;11.284;2022-07-18T14:06:38;101923.81;;;34.72
67509;BMP280;54354;44.724;11.284;2022-07-18T14:09:04;101914.69;;;34.62